Terminal Aerodrome Forecast
Issued by NWS

Home | Current Version | Previous Version | Text Only | Print | Product List | Glossary On
Versions: 1 2 3 4 5 6 7 8 9 10 11 12
000
FTUS46 KMTR 300500
TAFSJC
TAF
KSJC 300532Z 3006/3106 26006KT P6SM SKC
     FM300700 VRB03KT P6SM FEW010
     FM302100 30010KT P6SM FEW250
     FM310400 26005KT P6SM SKC=

USA.gov is the U.S. government's official web portal to all federal, state and local government web resources and services.